Terminal Aerodrome Forecast
Issued by NWS

Home | Current Version | Previous Version | Text Only | Print | Product List | Glossary On
Versions: 1 2 3 4 5 6 7 8 9 10 11 12 13 14 15 16 17 18 19 20 21 22 23 24 25 26
530
FTUS41 KOKX 232352
TAFHPN
TAF
KHPN 232352Z 2400/2424 VRB03KT P6SM SCT250
     FM241100 17005KT P6SM SCT120 BKN250
     FM241400 19008KT P6SM OVC080
      TEMPO 2415/2419 6SM -RASNPL SCT025 BKN050
     FM241900 20011KT P6SM VCSH OVC040
     FM242200 20008KT P6SM OVC040
      AMD NOT SKED=

USA.gov is the U.S. government's official web portal to all federal, state and local government web resources and services.